createdAt,value
2018-12-03T00:00:50.194Z,15.80
2018-12-03T00:03:21.365Z,15.70
2018-12-03T00:05:52.008Z,15.70
2018-12-03T00:08:22.557Z,15.80
2018-12-03T00:10:53.008Z,15.80
2018-12-03T00:13:23.550Z,15.70
2018-12-03T00:15:53.979Z,15.70
2018-12-03T00:18:24.419Z,15.70
2018-12-03T00:20:55.150Z,15.60
2018-12-03T00:23:25.522Z,15.60
2018-12-03T00:25:56.065Z,15.60
2018-12-03T00:28:26.602Z,15.50
2018-12-03T00:30:57.050Z,15.60
2018-12-03T00:33:27.701Z,15.50
2018-12-03T00:35:58.258Z,15.50
2018-12-03T00:38:28.776Z,15.50
2018-12-03T00:40:59.345Z,15.40
2018-12-03T00:43:29.888Z,15.40
2018-12-03T00:46:00.239Z,15.40
2018-12-03T00:48:30.657Z,15.40
2018-12-03T00:51:01.024Z,15.40
2018-12-03T00:53:31.397Z,15.30
2018-12-03T00:56:01.962Z,15.40
2018-12-03T00:58:32.630Z,15.40
2018-12-03T01:01:03.102Z,15.40
2018-12-03T01:03:33.538Z,15.30
2018-12-03T01:06:03.988Z,15.30
2018-12-03T01:08:34.427Z,15.30
2018-12-03T01:11:04.812Z,15.30
2018-12-03T01:13:35.309Z,15.30
2018-12-03T01:16:05.920Z,15.80
2018-12-03T01:18:36.294Z,15.20
2018-12-03T01:21:07.017Z,15.10
2018-12-03T01:23:37.548Z,15.20
2018-12-03T01:26:08.445Z,15.20
2018-12-03T01:28:39.073Z,15.20
2018-12-03T01:31:09.582Z,15.10
2018-12-03T01:33:40.293Z,15.00
2018-12-03T01:36:10.677Z,15.20
2018-12-03T01:38:41.166Z,15.00
2018-12-03T01:41:11.599Z,15.10
2018-12-03T01:43:42.024Z,15.10
2018-12-03T01:46:12.487Z,15.10
2018-12-03T01:48:43.008Z,15.10
2018-12-03T01:51:13.453Z,15.00
2018-12-03T01:53:44.034Z,15.00
2018-12-03T01:56:14.489Z,15.10
2018-12-03T01:58:44.860Z,14.90
2018-12-03T02:01:15.466Z,14.90
2018-12-03T02:03:45.999Z,14.90
2018-12-03T02:06:16.695Z,15.00
2018-12-03T02:08:47.051Z,14.90
2018-12-03T02:11:17.622Z,14.90
2018-12-03T02:17:07.652Z,15.10
2018-12-03T02:19:38.189Z,15.10
2018-12-03T02:22:11.019Z,15.00
2018-12-03T02:24:41.516Z,15.00
2018-12-03T02:27:11.976Z,15.00
2018-12-03T02:29:42.325Z,15.10
2018-12-03T02:32:12.642Z,15.00
2018-12-03T02:34:44.768Z,15.00
2018-12-03T02:37:15.293Z,15.00
2018-12-03T02:39:45.685Z,15.00
2018-12-03T02:42:16.150Z,14.90
2018-12-03T02:44:46.728Z,15.50
2018-12-03T02:47:17.351Z,15.00
2018-12-03T02:49:47.847Z,14.90
2018-12-03T02:52:18.358Z,14.90
2018-12-03T02:54:48.772Z,14.90
2018-12-03T02:57:19.256Z,14.80
2018-12-03T02:59:49.657Z,14.90
2018-12-03T03:02:20.152Z,14.80
2018-12-03T03:04:50.542Z,14.90
2018-12-03T03:07:21.031Z,14.80
2018-12-03T03:09:51.424Z,14.80
2018-12-03T03:12:21.997Z,14.70
2018-12-03T03:14:52.373Z,14.80
2018-12-03T03:17:23.819Z,14.80
2018-12-03T03:19:54.268Z,14.70
2018-12-03T03:22:24.796Z,14.70
2018-12-03T03:24:55.208Z,14.70
2018-12-03T03:27:25.579Z,14.80
2018-12-03T03:29:56.152Z,14.60
2018-12-03T03:32:26.590Z,14.70
2018-12-03T03:34:57.321Z,14.60
2018-12-03T03:37:27.860Z,14.60
2018-12-03T03:39:58.285Z,14.70
2018-12-03T03:42:28.758Z,14.60
2018-12-03T03:44:59.421Z,14.60
2018-12-03T03:47:29.726Z,14.70
2018-12-03T03:50:00.172Z,14.60
2018-12-03T03:52:30.716Z,14.60
2018-12-03T03:55:01.199Z,14.60
2018-12-03T03:57:31.533Z,14.70
2018-12-03T04:00:02.170Z,14.60
2018-12-03T04:02:32.694Z,14.70
2018-12-03T04:05:03.179Z,14.90
2018-12-03T04:07:33.667Z,15.20
2018-12-03T04:10:04.148Z,15.10
2018-12-03T04:12:34.791Z,15.10
2018-12-03T04:15:05.451Z,15.00
2018-12-03T04:17:35.752Z,15.00
2018-12-03T04:20:09.221Z,15.60
2018-12-03T04:22:39.629Z,15.20
2018-12-03T04:25:11.111Z,15.10
2018-12-03T04:27:41.534Z,15.00
2018-12-03T04:30:30.963Z,15.00
2018-12-03T04:33:01.382Z,15.00
2018-12-03T04:35:31.825Z,15.00
2018-12-03T04:38:02.361Z,15.10
2018-12-03T04:40:32.685Z,15.10
2018-12-03T04:43:03.149Z,15.10
2018-12-03T04:45:33.685Z,16.40
2018-12-03T04:48:04.316Z,15.30
2018-12-03T04:50:34.713Z,15.70
2018-12-03T04:53:05.137Z,16.10
2018-12-03T04:55:35.426Z,15.90
2018-12-03T04:58:05.860Z,16.10
2018-12-03T05:00:36.413Z,16.10
2018-12-03T05:03:07.017Z,15.60
2018-12-03T05:05:37.513Z,15.80
2018-12-03T05:08:08.509Z,15.40
2018-12-03T05:10:40.082Z,15.30
2018-12-03T05:13:10.527Z,15.30
2018-12-03T05:15:40.853Z,15.30
2018-12-03T05:18:11.361Z,15.20
2018-12-03T05:20:41.756Z,15.50
2018-12-03T05:23:12.151Z,15.60
2018-12-03T05:25:42.544Z,15.50
2018-12-03T05:28:12.841Z,15.70
2018-12-03T05:30:43.310Z,15.70
2018-12-03T05:33:13.867Z,15.70
2018-12-03T05:35:44.407Z,15.80
2018-12-03T05:38:15.058Z,15.70
2018-12-03T05:40:45.503Z,15.80
2018-12-03T05:43:15.943Z,15.80
2018-12-03T05:45:46.469Z,15.80
2018-12-03T05:48:16.918Z,15.80
2018-12-03T05:50:47.345Z,15.70
2018-12-03T05:53:17.711Z,15.70
2018-12-03T05:55:48.151Z,15.70
2018-12-03T05:58:18.513Z,15.70
2018-12-03T06:00:49.040Z,15.70
2018-12-03T06:03:19.578Z,15.70
2018-12-03T06:05:49.993Z,15.70
2018-12-03T06:08:20.466Z,15.50
2018-12-03T06:10:51.017Z,15.70
2018-12-03T06:13:21.440Z,15.70
2018-12-03T06:15:51.811Z,15.70
2018-12-03T06:18:22.259Z,15.80
2018-12-03T06:20:52.969Z,15.70
2018-12-03T06:23:23.564Z,15.70
2018-12-03T06:25:53.998Z,15.70
2018-12-03T06:28:24.493Z,15.70
2018-12-03T06:30:55.066Z,15.70
2018-12-03T06:33:25.357Z,15.70
2018-12-03T06:35:55.850Z,15.60
2018-12-03T06:38:26.492Z,15.60
2018-12-03T06:40:57.160Z,15.60
2018-12-03T06:43:27.680Z,15.70
2018-12-03T06:45:58.267Z,15.60
2018-12-03T06:48:28.698Z,15.60
2018-12-03T06:50:59.230Z,15.60
2018-12-03T06:53:29.694Z,15.60
2018-12-03T06:56:00.243Z,15.60
2018-12-03T06:58:30.693Z,15.50
2018-12-03T07:01:01.107Z,15.50
2018-12-03T07:03:31.559Z,15.60
2018-12-03T07:06:01.949Z,15.60
2018-12-03T07:08:32.839Z,15.70
2018-12-03T07:11:03.299Z,15.70
2018-12-03T07:13:35.135Z,15.70
2018-12-03T07:16:05.717Z,15.80
2018-12-03T07:18:36.445Z,15.80
2018-12-03T07:21:07.321Z,15.70
2018-12-03T07:23:37.670Z,15.70
2018-12-03T07:26:08.323Z,15.60
2018-12-03T07:28:38.759Z,15.60
2018-12-03T07:31:09.315Z,15.60
2018-12-03T07:33:39.690Z,15.60
2018-12-03T07:36:10.073Z,15.50
2018-12-03T07:38:40.563Z,15.60
2018-12-03T07:41:11.057Z,15.50
2018-12-03T07:43:41.509Z,15.60
2018-12-03T07:46:11.992Z,15.60
2018-12-03T07:48:42.527Z,15.60
2018-12-03T07:51:13.045Z,15.60
2018-12-03T07:53:43.488Z,15.60
2018-12-03T07:56:13.846Z,16.20
2018-12-03T07:58:44.373Z,15.60
2018-12-03T08:01:15.015Z,15.70
2018-12-03T08:03:45.468Z,15.70
2018-12-03T08:06:15.880Z,15.70
2018-12-03T08:08:46.361Z,15.80
2018-12-03T08:11:16.893Z,15.90
2018-12-03T08:13:47.406Z,15.80
2018-12-03T08:16:17.796Z,15.80
2018-12-03T08:18:48.106Z,15.80
2018-12-03T08:21:18.561Z,15.80
2018-12-03T08:24:21.369Z,15.80
2018-12-03T08:26:51.876Z,15.80
2018-12-03T08:29:22.445Z,15.80
2018-12-03T08:31:52.799Z,16.50
2018-12-03T08:34:23.199Z,15.80
2018-12-03T08:36:53.745Z,15.90
2018-12-03T08:39:24.300Z,15.90
2018-12-03T08:41:54.838Z,15.90
2018-12-03T08:44:30.353Z,15.90
2018-12-03T08:47:06.817Z,16.00
2018-12-03T08:49:37.426Z,15.90
2018-12-03T08:52:09.898Z,16.00
2018-12-03T08:54:40.519Z,16.00
2018-12-03T08:57:10.879Z,16.00
2018-12-03T08:59:41.362Z,16.00
2018-12-03T09:02:11.927Z,16.00
2018-12-03T09:04:42.483Z,16.00
2018-12-03T09:07:13.028Z,15.90
2018-12-03T09:09:43.565Z,15.90
2018-12-03T09:12:14.034Z,15.90
2018-12-03T09:14:44.509Z,15.70
2018-12-03T09:17:15.104Z,15.90
2018-12-03T09:19:50.061Z,16.00
2018-12-03T09:22:20.601Z,16.00
2018-12-03T09:24:51.037Z,16.00
2018-12-03T09:27:21.589Z,16.00
2018-12-03T09:29:56.377Z,16.10
2018-12-03T09:32:26.784Z,16.00
2018-12-03T09:34:57.143Z,16.20
2018-12-03T09:37:28.446Z,16.20
2018-12-03T09:39:58.887Z,16.20
2018-12-03T09:42:35.885Z,16.30
2018-12-03T09:45:16.930Z,16.30
2018-12-03T09:47:47.681Z,16.20
2018-12-03T09:50:22.281Z,16.40
2018-12-03T09:52:52.925Z,16.40
2018-12-03T09:55:30.114Z,16.40
2018-12-03T09:58:07.969Z,16.50
2018-12-03T10:00:38.590Z,16.50
2018-12-03T10:03:36.734Z,16.60
2018-12-03T10:06:15.953Z,16.60
2018-12-03T10:08:46.542Z,16.70
2018-12-03T10:11:17.053Z,16.60
2018-12-03T10:13:47.727Z,16.80
2018-12-03T10:16:18.294Z,16.80
2018-12-03T10:18:51.870Z,16.80
2018-12-03T10:21:22.423Z,16.80
2018-12-03T10:23:52.914Z,16.90
2018-12-03T10:26:23.709Z,16.90
2018-12-03T10:28:54.155Z,16.80
2018-12-03T10:31:24.727Z,16.90
2018-12-03T10:33:55.306Z,16.90
2018-12-03T10:36:25.716Z,16.80
2018-12-03T10:38:56.206Z,16.70
2018-12-03T10:41:31.403Z,16.80
2018-12-03T10:44:03.399Z,16.80
2018-12-03T10:46:33.809Z,16.80
2018-12-03T10:49:09.795Z,16.80
2018-12-03T10:51:40.344Z,16.80
2018-12-03T10:54:10.872Z,16.80
2018-12-03T10:56:41.327Z,16.80
2018-12-03T10:59:11.894Z,16.80
2018-12-03T11:02:10.148Z,16.80
2018-12-03T11:04:43.761Z,16.80
2018-12-03T11:07:15.498Z,16.70
2018-12-03T11:09:45.911Z,16.80
2018-12-03T11:12:16.359Z,16.80
2018-12-03T11:14:46.872Z,16.80
2018-12-03T11:17:17.447Z,16.80
2018-12-03T11:19:50.832Z,16.80
2018-12-03T11:22:24.733Z,16.70
2018-12-03T11:24:55.204Z,16.70
2018-12-03T11:27:25.851Z,17.20
2018-12-03T11:29:56.440Z,16.70
2018-12-03T11:32:26.965Z,16.70
2018-12-03T11:34:57.426Z,16.80
2018-12-03T11:37:27.810Z,16.70
2018-12-03T11:40:07.658Z,16.80
2018-12-03T11:42:39.272Z,16.80
2018-12-03T11:45:11.561Z,16.80
2018-12-03T11:47:42.169Z,16.70
2018-12-03T11:50:13.861Z,16.80
2018-12-03T11:52:44.429Z,16.80
2018-12-03T11:55:16.094Z,16.70
2018-12-03T11:57:46.458Z,16.70
2018-12-03T12:00:16.786Z,16.70
2018-12-03T12:02:47.207Z,16.70
2018-12-03T12:05:19.546Z,16.80
2018-12-03T12:07:50.167Z,16.70
2018-12-03T12:10:20.617Z,16.70
2018-12-03T12:12:51.159Z,16.70
2018-12-03T12:15:21.778Z,16.80
2018-12-03T12:17:52.302Z,16.80
2018-12-03T12:20:22.902Z,16.80
2018-12-03T12:22:53.429Z,16.80
2018-12-03T12:25:23.910Z,16.80
2018-12-03T12:27:56.526Z,16.80
2018-12-03T12:30:27.128Z,16.80
2018-12-03T12:32:57.570Z,16.90
2018-12-03T12:35:27.966Z,16.80
2018-12-03T12:37:58.442Z,16.90
2018-12-03T12:40:29.006Z,16.90
2018-12-03T12:42:59.524Z,16.80
2018-12-03T12:45:38.943Z,17.30
2018-12-03T12:48:08.628Z,16.80
2018-12-03T12:50:39.027Z,17.30
2018-12-03T12:53:09.480Z,16.80
2018-12-03T12:55:40.012Z,16.90
2018-12-03T12:58:10.540Z,17.00
2018-12-03T13:00:40.925Z,17.00
2018-12-03T13:03:11.447Z,17.00
2018-12-03T13:05:42.396Z,16.90
2018-12-03T13:08:12.949Z,17.60
2018-12-03T13:10:43.391Z,17.00
2018-12-03T13:13:13.812Z,16.90
2018-12-03T13:15:44.210Z,16.90
2018-12-03T13:18:14.665Z,16.90
2018-12-03T13:20:45.066Z,17.00
2018-12-03T13:23:15.481Z,16.90
2018-12-03T13:25:45.984Z,16.90
2018-12-03T13:28:16.424Z,17.00
2018-12-03T13:30:46.717Z,16.90
2018-12-03T13:33:17.414Z,16.90
2018-12-03T13:35:47.773Z,16.90
2018-12-03T13:38:18.196Z,16.90
2018-12-03T13:40:48.739Z,16.90
2018-12-03T13:43:19.101Z,16.90
2018-12-03T13:45:49.420Z,16.90
2018-12-03T13:48:19.953Z,16.90
2018-12-03T13:50:50.377Z,16.90
2018-12-03T13:53:20.985Z,16.90
2018-12-03T13:55:51.609Z,16.90
2018-12-03T13:58:22.128Z,16.90
2018-12-03T14:00:52.504Z,16.90
2018-12-03T14:03:34.030Z,16.80
2018-12-03T14:06:27.961Z,16.80
2018-12-03T14:09:11.278Z,16.90
2018-12-03T14:12:30.080Z,16.90
2018-12-03T14:15:36.931Z,16.90
2018-12-03T14:18:23.273Z,16.90
2018-12-03T14:20:55.300Z,16.80
2018-12-03T14:23:45.008Z,16.90
2018-12-03T14:26:15.411Z,16.80
2018-12-03T14:28:46.037Z,16.90
2018-12-03T14:31:16.604Z,16.90
2018-12-03T14:33:47.169Z,16.80
2018-12-03T14:36:17.639Z,16.80
2018-12-03T14:38:48.080Z,16.80
2018-12-03T14:41:18.492Z,16.80
2018-12-03T14:43:48.953Z,16.70
2018-12-03T14:46:19.600Z,16.70
2018-12-03T14:48:50.043Z,16.70
2018-12-03T14:51:20.809Z,16.60
2018-12-03T14:53:51.254Z,16.70
2018-12-03T14:56:21.744Z,16.60
2018-12-03T14:58:52.226Z,16.70
2018-12-03T15:01:22.697Z,16.80
2018-12-03T15:03:53.033Z,16.70
2018-12-03T15:06:23.659Z,16.60
2018-12-03T15:08:54.189Z,16.70
2018-12-03T15:11:24.721Z,16.60
2018-12-03T15:13:55.301Z,16.60
2018-12-03T15:16:25.905Z,16.60
2018-12-03T15:18:56.259Z,16.70
2018-12-03T15:21:26.839Z,16.70
2018-12-03T15:23:57.412Z,16.70
2018-12-03T15:26:28.070Z,16.60
2018-12-03T15:28:58.704Z,16.60
2018-12-03T15:31:29.239Z,16.60
2018-12-03T15:33:59.656Z,16.70
2018-12-03T15:36:29.991Z,16.60
2018-12-03T15:39:00.538Z,16.60
2018-12-03T15:41:31.178Z,16.60
2018-12-03T15:44:01.719Z,16.60
2018-12-03T15:46:32.269Z,16.60
2018-12-03T15:49:03.680Z,16.70
2018-12-03T15:51:34.114Z,16.80
2018-12-03T15:54:04.636Z,16.80
2018-12-03T15:56:34.974Z,16.80
2018-12-03T15:59:05.538Z,16.80
2018-12-03T16:01:36.058Z,16.80
2018-12-03T16:04:06.450Z,16.90
2018-12-03T16:06:36.955Z,17.10
2018-12-03T16:09:10.304Z,17.00
2018-12-03T16:11:41.117Z,17.10
2018-12-03T16:14:11.770Z,17.10
2018-12-03T16:16:42.224Z,17.00
2018-12-03T16:19:12.818Z,17.00
2018-12-03T16:21:43.404Z,17.10
2018-12-03T16:24:13.930Z,17.10
2018-12-03T16:26:44.381Z,17.10
2018-12-03T16:29:14.849Z,17.10
2018-12-03T16:31:45.308Z,17.10
2018-12-03T16:34:15.743Z,17.20
2018-12-03T16:36:46.171Z,16.80
2018-12-03T16:39:16.604Z,16.90
2018-12-03T16:41:47.136Z,17.00
2018-12-03T16:44:17.697Z,17.10
2018-12-03T16:46:48.151Z,17.10
2018-12-03T16:49:18.583Z,17.10
2018-12-03T16:51:49.145Z,17.00
2018-12-03T16:54:19.577Z,17.10
2018-12-03T16:56:50.106Z,17.70
2018-12-03T16:59:20.773Z,17.10
2018-12-03T17:01:51.117Z,17.20
2018-12-03T17:04:21.575Z,17.10
2018-12-03T17:06:52.207Z,17.10
2018-12-03T17:09:22.756Z,17.20
2018-12-03T17:11:53.340Z,17.30
2018-12-03T17:14:23.936Z,17.30
2018-12-03T17:16:54.467Z,17.30
2018-12-03T17:19:25.035Z,17.30
2018-12-03T17:22:26.410Z,17.30
2018-12-03T17:24:56.814Z,17.30
2018-12-03T17:27:27.380Z,17.10
2018-12-03T17:29:57.790Z,17.30
2018-12-03T17:32:28.370Z,17.30
2018-12-03T17:34:58.878Z,17.50
2018-12-03T17:37:29.356Z,17.50
2018-12-03T17:39:59.905Z,17.60
2018-12-03T17:42:30.440Z,17.60
2018-12-03T17:45:01.029Z,17.50
2018-12-03T17:47:31.745Z,17.70
2018-12-03T17:50:02.296Z,17.90
2018-12-03T17:52:32.855Z,18.00
2018-12-03T17:55:03.293Z,18.00
2018-12-03T17:57:33.936Z,18.00
2018-12-03T18:00:04.677Z,17.90
2018-12-03T18:02:35.316Z,18.10
2018-12-03T18:05:05.961Z,18.20
2018-12-03T18:07:36.627Z,18.10
2018-12-03T18:10:09.427Z,18.70
2018-12-03T18:12:39.870Z,20.00
2018-12-03T18:15:11.210Z,20.00
2018-12-03T18:17:41.795Z,19.80
2018-12-03T18:20:12.599Z,19.60
2018-12-03T18:22:43.070Z,19.50
2018-12-03T18:25:13.704Z,19.50
2018-12-03T18:27:44.171Z,19.50
2018-12-03T18:30:14.685Z,19.30
2018-12-03T18:32:45.245Z,19.80
2018-12-03T18:35:15.561Z,19.40
2018-12-03T18:37:46.164Z,20.00
2018-12-03T18:40:16.595Z,19.90
2018-12-03T18:42:47.137Z,19.60
2018-12-03T18:45:17.676Z,19.50
2018-12-03T18:47:48.225Z,19.70
2018-12-03T18:50:48.168Z,19.50
2018-12-03T18:53:24.148Z,19.70
2018-12-03T18:55:54.873Z,19.60
2018-12-03T18:58:38.525Z,19.30
2018-12-03T19:01:09.054Z,19.20
2018-12-03T19:03:39.475Z,19.20
2018-12-03T19:06:10.858Z,18.80
2018-12-03T19:08:41.404Z,19.00
2018-12-03T19:11:11.853Z,18.70
2018-12-03T19:13:42.395Z,18.80
2018-12-03T19:16:12.795Z,18.60
2018-12-03T19:18:43.281Z,18.60
2018-12-03T19:21:13.931Z,18.60
2018-12-03T19:23:44.286Z,18.60
2018-12-03T19:26:14.710Z,18.50
2018-12-03T19:28:45.170Z,18.40
2018-12-03T19:31:15.558Z,18.50
2018-12-03T19:33:46.157Z,18.70
2018-12-03T19:36:16.609Z,18.80
2018-12-03T19:38:47.331Z,18.90
2018-12-03T19:41:17.873Z,18.40
2018-12-03T19:43:48.422Z,18.40
2018-12-03T19:46:18.992Z,18.40
2018-12-03T19:48:49.630Z,18.30
2018-12-03T19:51:20.156Z,18.50
2018-12-03T19:53:50.882Z,18.20
2018-12-03T19:56:21.674Z,18.40
2018-12-03T19:58:53.741Z,18.00
2018-12-03T20:01:24.220Z,18.30
2018-12-03T20:03:54.650Z,18.10
2018-12-03T20:06:25.095Z,18.00
2018-12-03T20:08:55.604Z,18.10
2018-12-03T20:11:26.218Z,17.90
2018-12-03T20:13:56.850Z,19.00
2018-12-03T20:16:27.153Z,18.20
2018-12-03T20:18:57.927Z,18.00
2018-12-03T20:21:28.719Z,19.00
2018-12-03T20:24:08.331Z,17.50
2018-12-03T20:27:02.431Z,17.60
2018-12-03T20:29:57.831Z,17.60
2018-12-03T20:32:40.898Z,17.30
2018-12-03T20:35:36.561Z,17.70
2018-12-03T20:38:42.953Z,17.40
2018-12-03T20:41:23.315Z,17.40
2018-12-03T20:43:56.800Z,17.50
2018-12-03T20:47:04.526Z,17.30
2018-12-03T20:50:10.370Z,17.40
2018-12-03T20:52:40.760Z,17.00
2018-12-03T20:55:20.840Z,17.00
2018-12-03T20:57:52.344Z,16.90
2018-12-03T21:00:23.209Z,16.90
2018-12-03T21:02:59.594Z,16.80
2018-12-03T21:05:30.072Z,16.80
2018-12-03T21:08:00.668Z,16.80
2018-12-03T21:10:31.214Z,16.80
2018-12-03T21:13:01.752Z,16.60
2018-12-03T21:15:32.398Z,16.70
2018-12-03T21:18:02.853Z,16.60
2018-12-03T21:20:56.834Z,16.50
2018-12-03T21:23:27.242Z,16.50
2018-12-03T21:25:57.808Z,16.40
2018-12-03T21:28:28.462Z,16.50
2018-12-03T21:30:58.791Z,16.30
2018-12-03T21:33:29.354Z,16.30
2018-12-03T21:36:00.009Z,16.20
2018-12-03T21:38:30.615Z,16.20
2018-12-03T21:41:01.084Z,16.20
2018-12-03T21:43:31.601Z,16.20
2018-12-03T21:46:01.975Z,16.20
2018-12-03T21:48:32.403Z,16.20
2018-12-03T21:51:03.094Z,16.10
2018-12-03T21:53:33.599Z,16.10
2018-12-03T21:56:04.113Z,16.10
2018-12-03T21:58:34.486Z,16.10
2018-12-03T22:01:04.857Z,16.10
2018-12-03T22:03:35.251Z,16.10
2018-12-03T22:06:05.739Z,16.10
2018-12-03T22:08:36.248Z,16.10
2018-12-03T22:11:06.820Z,16.10
2018-12-03T22:13:40.121Z,16.20
2018-12-03T22:16:10.789Z,16.20
2018-12-03T22:18:41.331Z,16.20
2018-12-03T22:21:11.829Z,16.10
2018-12-03T22:23:42.409Z,16.30
2018-12-03T22:26:13.062Z,16.40
2018-12-03T22:28:43.531Z,16.40
2018-12-03T22:31:14.060Z,16.30
2018-12-03T22:33:44.447Z,16.30
2018-12-03T22:36:15.161Z,16.20
2018-12-03T22:38:45.756Z,16.30
2018-12-03T22:41:16.446Z,16.10
2018-12-03T22:43:46.834Z,16.20
2018-12-03T22:46:17.337Z,16.10
2018-12-03T22:48:47.759Z,16.10
2018-12-03T22:51:18.325Z,16.00
2018-12-03T22:53:48.729Z,16.10
2018-12-03T22:56:19.366Z,16.00
2018-12-03T22:58:49.869Z,16.00
2018-12-03T23:01:26.438Z,16.00
2018-12-03T23:03:56.985Z,15.90
2018-12-03T23:06:27.432Z,15.80
2018-12-03T23:08:57.872Z,15.80
2018-12-03T23:11:28.402Z,15.80
2018-12-03T23:13:58.944Z,15.80
2018-12-03T23:16:29.390Z,15.80
2018-12-03T23:18:59.916Z,15.70
2018-12-03T23:21:30.461Z,15.80
2018-12-03T23:24:00.913Z,15.70
2018-12-03T23:26:31.449Z,15.70
2018-12-03T23:29:01.978Z,15.70
2018-12-03T23:31:32.385Z,15.80
2018-12-03T23:34:02.796Z,15.70
2018-12-03T23:36:33.370Z,15.60
2018-12-03T23:39:03.937Z,15.60
2018-12-03T23:41:34.433Z,15.60
2018-12-03T23:44:04.870Z,15.70
2018-12-03T23:46:35.304Z,15.50
2018-12-03T23:49:05.994Z,15.50
2018-12-03T23:51:36.533Z,15.50
2018-12-03T23:54:06.858Z,15.50
2018-12-03T23:56:37.391Z,15.60
2018-12-03T23:59:07.941Z,15.50
